Time;durP1;ratioP1;P1;durP2;ratioP2;P2;SDS_P1;SDS_P2;PMS_P1;PMS_P2;Temp;Humidity;BMP_temperature;BMP_pressure;BME280_temperature;BME280_humidity;BME280_pressure;Samples;Min_cycle;Max_cycle;Signal;HPM_P1;HPM_P2
2022/03/08 00:01:24;;;;;;;14.65;6.30;;;;;;;-1.19;75.71;102408.44;5090532;28;20034;-85
2022/03/08 00:03:50;;;;;;;12.05;6.00;;;;;;;-1.22;75.51;102414.22;5106018;28;20090;-85
2022/03/08 00:06:15;;;;;;;13.32;6.18;;;;;;;-1.25;74.26;102411.56;5104516;28;20083;-85
2022/03/08 00:08:42;;;;;;;10.55;5.63;;;;;;;-1.24;75.26;102412.44;5081427;28;20081;-85
2022/03/08 00:11:08;;;;;;;12.85;5.78;;;;;;;-1.24;74.59;102407.34;5071830;28;20407;-85
2022/03/08 00:13:33;;;;;;;11.05;5.93;;;;;;;-1.28;75.37;102408.84;5096535;28;20032;-85
2022/03/08 00:15:58;;;;;;;14.00;5.95;;;;;;;-1.27;73.93;102404.63;5078038;28;20082;-85
2022/03/08 00:18:24;;;;;;;13.90;6.47;;;;;;;-1.27;75.82;102404.63;5089186;28;20469;-85
2022/03/08 00:20:49;;;;;;;13.85;6.32;;;;;;;-1.25;75.03;102397.97;5101475;28;20058;-85
2022/03/08 00:23:15;;;;;;;12.32;6.13;;;;;;;-1.23;75.06;102401.47;5096257;28;20472;-85
2022/03/08 00:25:40;;;;;;;10.43;5.50;;;;;;;-1.25;74.50;102401.38;5110161;28;20028;-84
2022/03/08 00:28:05;;;;;;;13.00;6.05;;;;;;;-1.24;75.08;102398.03;5079432;28;20031;-84
2022/03/08 00:30:31;;;;;;;12.50;6.00;;;;;;;-1.23;75.19;102394.69;5098408;28;20026;-84
2022/03/08 00:32:56;;;;;;;11.82;6.05;;;;;;;-1.23;74.29;102386.19;5091697;28;20046;-84
2022/03/08 00:35:24;;;;;;;11.23;5.32;;;;;;;-1.18;73.23;102394.06;5092310;28;20082;-85
2022/03/08 00:37:50;;;;;;;11.93;5.60;;;;;;;-1.14;73.47;102388.28;5105479;28;20115;-84
2022/03/08 00:40:18;;;;;;;12.00;6.07;;;;;;;-1.14;73.77;102384.09;5109897;28;20030;-84
2022/03/08 00:42:44;;;;;;;11.40;5.88;;;;;;;-1.16;74.51;102388.22;5104940;28;20031;-84
2022/03/08 00:45:10;;;;;;;12.20;5.85;;;;;;;-1.18;73.41;102386.41;5097765;28;20028;-84
2022/03/08 00:47:39;;;;;;;10.70;5.80;;;;;;;-1.17;72.81;102388.16;5093053;28;20115;-84
2022/03/08 00:50:06;;;;;;;10.93;5.30;;;;;;;-1.16;72.80;102383.13;5102836;28;20028;-85
2022/03/08 00:52:32;;;;;;;11.93;5.57;;;;;;;-1.14;73.35;102379.00;5082799;28;20039;-84
2022/03/08 00:54:57;;;;;;;12.70;6.00;;;;;;;-1.16;73.94;102392.47;5129968;28;20023;-85
2022/03/08 00:57:23;;;;;;;10.75;5.22;;;;;;;-1.24;72.81;102390.41;5095940;28;20563;-84
2022/03/08 00:59:48;;;;;;;10.60;5.60;;;;;;;-1.31;74.03;102388.38;5097214;28;20040;-84
2022/03/08 01:02:13;;;;;;;10.10;5.10;;;;;;;-1.32;73.14;102394.25;5093062;28;20028;-84
2022/03/08 01:04:38;;;;;;;10.20;5.47;;;;;;;-1.38;73.76;102400.69;5093412;28;20032;-84
2022/03/08 01:07:06;;;;;;;11.52;5.57;;;;;;;-1.41;73.38;102391.25;5091510;28;20470;-84
2022/03/08 01:09:31;;;;;;;11.20;5.38;;;;;;;-1.42;73.53;102388.63;5092241;28;20031;-84
2022/03/08 01:11:56;;;;;;;12.38;5.30;;;;;;;-1.43;73.63;102382.66;5091420;28;20060;-84
2022/03/08 01:14:22;;;;;;;12.27;5.80;;;;;;;-1.40;74.70;102389.56;5095885;28;20186;-84
2022/03/08 01:16:48;;;;;;;12.05;5.72;;;;;;;-1.41;74.13;102386.16;5098382;28;20190;-84
2022/03/08 01:19:13;;;;;;;11.38;5.13;;;;;;;-1.46;75.05;102377.44;5103618;28;20019;-85
2022/03/08 01:21:38;;;;;;;10.90;5.70;;;;;;;-1.47;74.05;102377.34;5091385;28;20035;-85
2022/03/08 01:24:05;;;;;;;11.00;5.28;;;;;;;-1.48;74.27;102373.06;5091887;28;20495;-85
2022/03/08 01:26:31;;;;;;;10.50;5.40;;;;;;;-1.52;73.57;102374.59;5091422;28;20038;-85
2022/03/08 01:28:57;;;;;;;11.30;5.53;;;;;;;-1.56;73.77;102375.22;5091663;28;20028;-84
2022/03/08 01:31:22;;;;;;;11.45;5.68;;;;;;;-1.56;74.72;102374.34;5091493;28;20129;-84
2022/03/08 01:33:49;;;;;;;11.35;5.57;;;;;;;-1.59;74.71;102370.00;5106341;28;20061;-84
2022/03/08 01:36:15;;;;;;;11.10;5.18;;;;;;;-1.62;74.91;102365.63;5103574;28;20289;-84
2022/03/08 01:38:40;;;;;;;13.25;5.30;;;;;;;-1.66;74.63;102356.09;5091746;28;20190;-84
2022/03/08 01:41:05;;;;;;;11.55;5.38;;;;;;;-1.69;75.13;102355.06;5091076;28;20038;-85
2022/03/08 01:43:31;;;;;;;11.65;5.60;;;;;;;-1.70;73.98;102350.78;5090241;28;20028;-85
2022/03/08 01:45:56;;;;;;;11.35;5.40;;;;;;;-1.69;74.04;102348.31;5090831;28;20128;-84
2022/03/08 01:48:21;;;;;;;11.55;5.38;;;;;;;-1.70;73.91;102338.06;5091845;28;20024;-84
2022/03/08 01:50:47;;;;;;;11.30;5.72;;;;;;;-1.64;74.33;102334.16;5089251;28;20024;-85
2022/03/08 01:53:13;;;;;;;11.27;5.88;;;;;;;-1.61;75.04;102336.00;5103107;28;20043;-85
2022/03/08 01:55:39;;;;;;;10.80;5.50;;;;;;;-1.65;75.42;102334.97;5088251;28;20430;-85
2022/03/08 01:58:04;;;;;;;11.60;5.45;;;;;;;-1.66;75.58;102337.44;5102033;28;20520;-85
2022/03/08 02:00:31;;;;;;;12.57;5.55;;;;;;;-1.68;76.15;102333.94;5099747;28;20491;-84
2022/03/08 02:02:57;;;;;;;11.68;5.78;;;;;;;-1.68;74.25;102331.41;5096950;28;20098;-84
2022/03/08 02:05:24;;;;;;;12.87;5.57;;;;;;;-1.65;73.76;102323.94;5055950;28;1068451;-85
2022/03/08 02:07:50;;;;;;;12.85;5.88;;;;;;;-1.61;74.15;102321.63;5112849;28;20273;-85
2022/03/08 02:10:15;;;;;;;11.25;5.28;;;;;;;-1.61;74.54;102318.19;5098645;28;20400;-85
2022/03/08 02:12:41;;;;;;;10.38;5.63;;;;;;;-1.66;74.99;102315.44;5086727;28;20119;-84
2022/03/08 02:15:15;;;;;;;10.95;5.53;;;;;;;-1.71;74.36;102309.28;5092953;28;20028;-84
2022/03/08 02:17:41;;;;;;;;;;;;;;;-1.70;73.56;102310.97;5103019;28;20085;-84
2022/03/08 02:20:07;;;;;;;9.93;4.95;;;;;;;-1.76;74.85;102314.88;5086713;28;19908;-84
2022/03/08 02:22:33;;;;;;;12.52;5.80;;;;;;;-1.84;75.28;102311.97;5112467;28;20031;-85
2022/03/08 02:24:58;;;;;;;10.70;5.53;;;;;;;-1.89;75.27;102313.41;5099648;28;20024;-84
2022/03/08 02:27:24;;;;;;;11.90;5.60;;;;;;;-1.96;74.58;102313.91;5099060;28;20080;-84
2022/03/08 02:29:50;;;;;;;12.73;5.93;;;;;;;-1.98;76.42;102304.47;5103125;28;20027;-85
2022/03/08 02:32:16;;;;;;;11.25;5.68;;;;;;;-2.02;75.85;102306.84;5098287;28;20027;-84
2022/03/08 02:34:41;;;;;;;10.57;5.63;;;;;;;-2.06;77.47;102306.63;5104184;28;20020;-84
2022/03/08 02:37:12;;;;;;;12.45;5.82;;;;;;;-2.14;77.60;102301.16;5091214;28;20058;-84
2022/03/08 02:39:39;;;;;;;14.05;6.10;;;;;;;-2.17;77.77;102310.25;5090624;28;20031;-85
2022/03/08 02:42:05;;;;;;;12.43;5.75;;;;;;;-2.26;78.22;102303.06;5100710;28;20054;-85
2022/03/08 02:44:30;;;;;;;12.90;6.35;;;;;;;-2.25;78.81;102307.31;5092157;28;20011;-85
2022/03/08 02:46:56;;;;;;;15.18;6.28;;;;;;;-2.29;77.93;102297.81;5091612;28;20040;-84
2022/03/08 02:49:22;;;;;;;11.18;5.85;;;;;;;-2.30;77.98;102301.16;5091805;28;20067;-85
2022/03/08 02:51:47;;;;;;;12.25;5.97;;;;;;;-2.29;79.17;102296.94;5093328;28;20027;-85
2022/03/08 02:54:13;;;;;;;12.15;5.60;;;;;;;-2.31;79.78;102294.31;5101191;28;20561;-84
2022/03/08 02:56:38;;;;;;;12.15;5.82;;;;;;;-2.35;79.72;102284.81;5076415;28;20114;-85
2022/03/08 02:59:04;;;;;;;12.20;6.13;;;;;;;-2.38;78.54;102285.50;5112407;28;20500;-84
2022/03/08 03:01:29;;;;;;;12.20;6.00;;;;;;;-2.40;79.10;102284.59;5107630;28;20036;-85
2022/03/08 03:03:55;;;;;;;14.73;6.15;;;;;;;-2.42;77.81;102265.84;5111926;28;20395;-85
2022/03/08 03:06:20;;;;;;;12.65;5.90;;;;;;;-2.40;77.12;102268.47;5093418;28;20040;-85
2022/03/08 03:08:45;;;;;;;11.75;6.18;;;;;;;-2.40;78.87;102269.34;5093026;28;20405;-84
2022/03/08 03:11:11;;;;;;;12.57;6.18;;;;;;;-2.46;77.16;102256.31;5076396;28;20054;-84
2022/03/08 03:13:36;;;;;;;12.30;6.32;;;;;;;-2.52;78.16;102250.94;5098461;28;20025;-83
2022/03/08 03:16:01;;;;;;;12.48;6.00;;;;;;;-2.50;78.97;102248.47;5104563;28;20028;-84
2022/03/08 03:18:26;;;;;;;12.88;6.53;;;;;;;-2.49;78.77;102251.09;5090952;28;20099;-84
2022/03/08 03:20:52;;;;;;;12.93;6.40;;;;;;;-2.48;79.31;102242.69;5098866;28;20036;-84
2022/03/08 03:23:17;;;;;;;12.65;6.00;;;;;;;-2.46;79.24;102243.63;5090168;28;20214;-85
2022/03/08 03:25:42;;;;;;;13.40;6.10;;;;;;;-2.49;77.73;102235.00;5088836;28;20028;-84
2022/03/08 03:28:08;;;;;;;12.27;6.07;;;;;;;-2.48;77.84;102237.63;5076211;28;20035;-84
2022/03/08 03:30:33;;;;;;;12.73;5.70;;;;;;;-2.43;77.97;102235.31;5103923;28;20032;-84
2022/03/08 03:32:59;;;;;;;13.90;5.95;;;;;;;-2.46;77.97;102227.56;5090453;28;20458;-84
2022/03/08 03:35:24;;;;;;;14.93;6.22;;;;;;;-2.46;78.03;102240.25;5091038;28;20051;-84
2022/03/08 03:37:49;;;;;;;13.57;6.45;;;;;;;-2.46;77.32;102238.53;5091129;28;20408;-84
2022/03/08 03:40:16;;;;;;;12.98;6.43;;;;;;;-2.43;79.01;102233.63;5089712;28;20035;-84
2022/03/08 03:42:42;;;;;;;14.02;6.00;;;;;;;-2.43;78.44;102233.63;5090319;28;20020;-85
2022/03/08 03:45:08;;;;;;;14.07;6.65;;;;;;;-2.41;77.72;102246.41;5090340;28;20391;-84
2022/03/08 03:47:33;;;;;;;12.52;6.13;;;;;;;-2.43;77.40;102243.78;5105217;28;20452;-84
2022/03/08 03:49:59;;;;;;;13.60;6.05;;;;;;;-2.41;78.56;102251.50;5094180;28;20532;-84
2022/03/08 03:52:24;;;;;;;15.50;6.45;;;;;;;-2.39;79.00;102247.38;5090205;28;20032;-85
2022/03/08 03:54:50;;;;;;;14.75;6.13;;;;;;;-2.41;78.50;102249.84;5098840;28;20024;-84
2022/03/08 03:57:15;;;;;;;11.50;5.80;;;;;;;-2.39;77.03;102252.47;5089623;28;20028;-85
2022/03/08 03:59:40;;;;;;;12.18;5.93;;;;;;;-2.34;78.16;102250.13;5072179;28;20459;-85
2022/03/08 04:02:06;;;;;;;11.80;6.15;;;;;;;-2.35;76.85;102246.72;5090008;28;20331;-84
2022/03/08 04:04:32;;;;;;;12.20;5.75;;;;;;;-2.32;77.24;102256.19;5105573;28;20023;-84
2022/03/08 04:06:57;;;;;;;13.10;6.22;;;;;;;-2.31;77.37;102256.22;5088985;28;20113;-84
2022/03/08 04:09:22;;;;;;;13.45;6.07;;;;;;;-2.34;77.29;102247.59;5089591;28;20031;-84
2022/03/08 04:11:48;;;;;;;12.82;6.40;;;;;;;-2.35;77.03;102243.31;5090106;28;20016;-84
2022/03/08 04:14:13;;;;;;;13.68;6.35;;;;;;;-2.34;76.28;102243.41;5104389;28;20080;-84
2022/03/08 04:16:38;;;;;;;13.55;6.50;;;;;;;-2.32;76.94;102230.78;5087602;28;20116;-84
2022/03/08 04:19:04;;;;;;;12.55;6.00;;;;;;;-2.32;76.76;102233.31;5071625;28;20020;-84
2022/03/08 04:21:29;;;;;;;12.23;5.93;;;;;;;-2.30;77.54;102230.06;5071664;28;20024;-84
2022/03/08 04:23:54;;;;;;;11.77;6.15;;;;;;;-2.26;76.15;102226.03;5089889;28;20016;-84
2022/03/08 04:26:20;;;;;;;12.73;6.00;;;;;;;-2.19;76.46;102236.56;5089898;28;20032;-84
2022/03/08 04:28:46;;;;;;;13.63;6.78;;;;;;;-2.13;76.15;102230.91;5093463;28;20032;-84
2022/03/08 04:31:11;;;;;;;13.60;5.97;;;;;;;-2.13;75.57;102226.72;5089184;28;20035;-84
2022/03/08 04:33:37;;;;;;;12.32;6.07;;;;;;;-2.11;76.86;102219.13;5090017;28;20097;-84
2022/03/08 04:36:03;;;;;;;12.50;6.30;;;;;;;-2.13;76.78;102231.78;5088695;28;20031;-84
2022/03/08 04:38:28;;;;;;;13.25;6.35;;;;;;;-2.18;76.96;102219.63;5089124;28;20012;-84
2022/03/08 04:40:53;;;;;;;10.95;5.85;;;;;;;-2.19;75.74;102228.94;5092844;28;20032;-84
2022/03/08 04:43:19;;;;;;;14.68;6.63;;;;;;;-2.20;77.12;102236.47;5091598;28;20118;-85
2022/03/08 04:45:44;;;;;;;13.57;6.45;;;;;;;-2.25;77.86;102225.22;5089214;28;20024;-84
2022/03/08 04:48:09;;;;;;;12.88;6.38;;;;;;;-2.33;77.31;102226.50;5099535;28;20027;-84
2022/03/08 04:50:35;;;;;;;12.85;6.20;;;;;;;-2.36;78.51;102223.78;5103882;28;20027;-84
2022/03/08 04:53:00;;;;;;;13.73;5.85;;;;;;;-2.42;78.66;102230.31;5098755;28;20028;-84
2022/03/08 04:55:25;;;;;;;13.68;6.38;;;;;;;-2.46;78.20;102236.00;5093626;28;20118;-85
2022/03/08 04:57:51;;;;;;;12.50;6.28;;;;;;;-2.49;78.94;102225.72;5088828;28;20020;-84
2022/03/08 05:00:16;;;;;;;13.05;6.43;;;;;;;-2.52;78.66;102230.63;5104565;28;20019;-84
2022/03/08 05:02:44;;;;;;;11.60;5.85;;;;;;;-2.53;79.39;102230.56;5092733;28;20190;-84
2022/03/08 05:05:11;;;;;;;13.95;6.50;;;;;;;-2.57;79.39;102226.97;5071202;28;20101;-84
2022/03/08 05:07:38;;;;;;;14.13;6.32;;;;;;;-2.58;79.43;102231.97;5094080;28;20561;-84
2022/03/08 05:10:05;;;;;;;12.32;6.30;;;;;;;-2.60;79.98;102231.91;5089610;28;20020;-84
2022/03/08 05:12:30;;;;;;;14.82;6.82;;;;;;;-2.62;78.44;102230.09;5090204;28;20089;-84
2022/03/08 05:14:56;;;;;;;12.38;6.15;;;;;;;-2.68;77.98;102229.75;5089469;28;20016;-84
2022/03/08 05:17:21;;;;;;;13.70;6.45;;;;;;;-2.67;78.84;102234.06;5087136;28;20042;-84
2022/03/08 05:19:47;;;;;;;12.93;6.22;;;;;;;-2.71;78.45;102221.97;5089481;28;20141;-84
2022/03/08 05:22:13;;;;;;;13.95;6.38;;;;;;;-2.71;79.65;102224.53;5094109;28;20476;-84
2022/03/08 05:24:38;;;;;;;14.63;6.53;;;;;;;-2.74;79.27;102221.84;5109888;28;20030;-84
2022/03/08 05:27:04;;;;;;;14.55;6.20;;;;;;;-2.74;78.85;102217.63;5100124;28;20024;-84
2022/03/08 05:29:29;;;;;;;13.48;6.28;;;;;;;-2.70;79.03;102224.59;5070580;28;20529;-84
2022/03/08 05:31:54;;;;;;;15.13;6.93;;;;;;;-2.71;79.58;102221.97;5073890;28;20116;-84
2022/03/08 05:34:20;;;;;;;23.33;7.28;;;;;;;-2.69;80.39;102216.22;5104158;28;20040;-84
2022/03/08 05:36:45;;;;;;;15.68;6.70;;;;;;;-2.66;78.86;102220.56;5107497;28;20023;-84
2022/03/08 05:39:11;;;;;;;14.23;6.93;;;;;;;-2.60;78.95;102214.16;5116726;28;20030;-83
2022/03/08 05:41:37;;;;;;;15.45;6.68;;;;;;;-2.58;78.11;102214.22;5109225;28;20028;-83
2022/03/08 05:44:02;;;;;;;13.25;6.72;;;;;;;-2.57;78.01;102211.75;5103148;28;20047;-84
2022/03/08 05:46:27;;;;;;;13.63;6.65;;;;;;;-2.56;78.98;102212.63;5102920;28;20350;-85
2022/03/08 05:48:53;;;;;;;15.80;6.82;;;;;;;-2.58;78.24;102214.22;5109915;28;20039;-85
2022/03/08 05:51:18;;;;;;;15.07;7.05;;;;;;;-2.60;78.87;102213.28;5068096;28;20024;-85
2022/03/08 05:53:43;;;;;;;13.02;6.63;;;;;;;-2.55;78.66;102214.38;5106446;28;20065;-84
2022/03/08 05:56:08;;;;;;;13.73;7.18;;;;;;;-2.54;78.82;102211.06;5088389;28;20485;-85
2022/03/08 05:58:34;;;;;;;14.63;6.90;;;;;;;-2.55;78.72;102212.72;5098563;28;20027;-85
2022/03/08 06:00:59;;;;;;;14.48;7.18;;;;;;;-2.53;78.34;102211.13;5101586;28;20700;-85
2022/03/08 06:03:24;;;;;;;15.80;7.05;;;;;;;-2.52;78.29;102214.50;5104327;28;20030;-85
2022/03/08 06:05:50;;;;;;;13.05;6.72;;;;;;;-2.50;78.46;102215.47;5094828;28;20044;-84
2022/03/08 06:08:15;;;;;;;16.35;7.00;;;;;;;-2.52;79.04;102212.84;5092311;28;20028;-84
2022/03/08 06:10:40;;;;;;;16.38;7.28;;;;;;;-2.50;78.16;102221.44;5102151;28;20095;-84
2022/03/08 06:13:06;;;;;;;19.15;7.32;;;;;;;-2.49;77.97;102227.38;5112727;28;20036;-84
2022/03/08 06:15:31;;;;;;;18.85;8.07;;;;;;;-2.48;78.94;102216.44;5107733;28;20027;-85
2022/03/08 06:17:56;;;;;;;16.52;7.55;;;;;;;-2.44;79.01;102215.78;5100446;28;20062;-85
2022/03/08 06:20:21;;;;;;;16.00;7.95;;;;;;;-2.42;78.90;102220.16;5096411;28;20036;-85
2022/03/08 06:22:47;;;;;;;15.65;7.25;;;;;;;-2.40;77.97;102221.13;5107077;28;20032;-85
2022/03/08 06:25:12;;;;;;;16.63;7.78;;;;;;;-2.35;78.34;102226.41;5102149;28;20044;-84
2022/03/08 06:27:38;;;;;;;16.02;7.95;;;;;;;-2.31;77.88;102217.28;5092537;28;20397;-85
2022/03/08 06:30:04;;;;;;;16.63;7.55;;;;;;;-2.29;77.55;102224.19;5097867;28;20020;-85
2022/03/08 06:32:30;;;;;;;14.30;7.00;;;;;;;-2.22;77.47;102228.78;5095497;28;20043;-85
2022/03/08 06:34:55;;;;;;;15.20;7.55;;;;;;;-2.13;77.63;102230.91;5096034;28;20019;-85
2022/03/08 06:37:21;;;;;;;17.27;7.95;;;;;;;-2.04;76.96;102226.25;5096554;28;20034;-85
2022/03/08 06:39:47;;;;;;;17.05;7.20;;;;;;;-1.97;76.18;102223.22;5088001;28;20067;-84
2022/03/08 06:42:12;;;;;;;13.88;7.25;;;;;;;-1.92;76.02;102221.81;5091284;28;20190;-84
2022/03/08 06:44:40;;;;;;;14.40;7.25;;;;;;;-1.82;76.06;102218.03;5093169;28;20059;-84
2022/03/08 06:47:07;;;;;;;14.23;7.15;;;;;;;-1.76;76.13;102221.75;5089943;28;20037;-84
2022/03/08 06:49:33;;;;;;;16.85;7.32;;;;;;;-1.69;75.56;102220.34;5085782;28;20063;-85
2022/03/08 06:51:59;;;;;;;15.50;7.13;;;;;;;-1.60;75.37;102216.59;5082643;28;20103;-84
2022/03/08 06:54:24;;;;;;;16.35;7.20;;;;;;;-1.48;75.52;102211.22;5091351;28;20106;-83
2022/03/08 06:56:49;;;;;;;14.77;7.18;;;;;;;-1.11;76.18;102202.75;5090273;28;20028;-84
2022/03/08 06:59:15;;;;;;;16.35;7.40;;;;;;;0.04;73.28;102209.44;5088505;28;20039;-84
2022/03/08 07:01:40;;;;;;;17.08;7.20;;;;;;;1.26;72.78;102208.22;5078360;28;20069;-84
2022/03/08 07:04:05;;;;;;;14.15;7.25;;;;;;;2.59;65.05;102196.50;5073763;28;20053;-83
2022/03/08 07:06:31;;;;;;;14.95;6.47;;;;;;;3.69;62.34;102195.34;5089825;28;20475;-84
2022/03/08 07:08:57;;;;;;;13.77;7.40;;;;;;;4.80;59.89;102195.44;5091291;28;20020;-84
2022/03/08 07:11:23;;;;;;;14.88;7.30;;;;;;;5.52;54.03;102193.50;5090022;28;20024;-84
2022/03/08 07:13:48;;;;;;;14.85;6.95;;;;;;;5.50;53.09;102195.16;5091168;28;20036;-84
2022/03/08 07:16:13;;;;;;;13.93;6.70;;;;;;;4.78;52.69;102191.97;5090517;28;20038;-84
2022/03/08 07:18:39;;;;;;;13.13;6.70;;;;;;;3.95;55.78;102194.34;5098880;28;20023;-85
2022/03/08 07:21:04;;;;;;;12.15;6.50;;;;;;;3.22;56.65;102217.13;5103135;28;20026;-85
2022/03/08 07:23:30;;;;;;;12.48;7.00;;;;;;;2.77;57.94;102216.66;5102260;28;20427;-84
2022/03/08 07:25:55;;;;;;;13.10;6.72;;;;;;;2.57;58.28;102218.63;5080478;28;20515;-85
2022/03/08 07:28:20;;;;;;;12.70;6.60;;;;;;;2.24;58.85;102208.19;5090555;28;20032;-85
2022/03/08 07:30:46;;;;;;;12.45;6.95;;;;;;;1.94;60.52;102209.75;5090112;28;20027;-85
2022/03/08 07:33:11;;;;;;;14.33;6.83;;;;;;;1.74;61.28;102209.06;5090377;28;20051;-85
2022/03/08 07:35:36;;;;;;;13.40;6.80;;;;;;;1.61;61.34;102224.81;5086655;28;20296;-85
2022/03/08 07:38:02;;;;;;;13.48;7.05;;;;;;;1.51;62.14;102221.03;5102153;28;20035;-85
2022/03/08 07:40:28;;;;;;;13.57;7.13;;;;;;;1.42;62.60;102220.75;5091569;28;20476;-85
2022/03/08 07:42:53;;;;;;;15.98;7.47;;;;;;;1.35;63.02;102217.91;5095915;28;20436;-85
2022/03/08 07:45:18;;;;;;;12.13;6.95;;;;;;;1.34;62.63;102218.72;5105803;28;20023;-85
2022/03/08 07:47:44;;;;;;;13.32;7.10;;;;;;;1.35;63.55;102223.03;5105839;28;20023;-86
2022/03/08 07:50:10;;;;;;;13.45;7.22;;;;;;;1.46;62.65;102216.59;5089752;28;20024;-85
2022/03/08 07:52:35;;;;;;;13.82;7.30;;;;;;;1.66;62.69;102199.41;5089975;28;20082;-85
2022/03/08 07:55:00;;;;;;;11.95;6.97;;;;;;;2.03;60.83;102197.28;5095674;28;20453;-85
2022/03/08 07:57:26;;;;;;;15.48;7.80;;;;;;;2.41;60.40;102203.59;5083138;28;20441;-85
2022/03/08 07:59:51;;;;;;;12.98;6.88;;;;;;;2.71;59.26;102198.56;5071460;28;20019;-85
2022/03/08 08:02:16;;;;;;;11.95;7.28;;;;;;;3.21;59.45;102197.44;5089746;28;20024;-85
2022/03/08 08:04:42;;;;;;;12.98;6.95;;;;;;;3.60;58.26;102196.81;5101942;28;20424;-85
2022/03/08 08:07:07;;;;;;;11.82;7.15;;;;;;;3.68;56.75;102198.75;5110010;28;20473;-85
2022/03/08 08:09:33;;;;;;;12.38;6.80;;;;;;;3.72;55.16;102202.25;5101535;28;20088;-84
2022/03/08 08:12:01;;;;;;;11.30;7.03;;;;;;;3.77;56.16;102208.34;5108140;28;20024;-83
2022/03/08 08:14:27;;;;;;;12.43;7.00;;;;;;;3.83;56.00;102209.38;5089538;28;20081;-85
2022/03/08 08:16:52;;;;;;;11.75;7.32;;;;;;;4.00;54.47;102198.69;5100640;28;20023;-85
2022/03/08 08:19:17;;;;;;;15.00;7.28;;;;;;;4.51;54.89;102204.19;5089838;28;20028;-85
2022/03/08 08:21:43;;;;;;;14.13;6.90;;;;;;;5.87;53.64;102196.69;5089195;28;20073;-85
2022/03/08 08:24:08;;;;;;;12.32;6.93;;;;;;;7.77;49.15;102195.84;5089515;28;20032;-85
2022/03/08 08:26:34;;;;;;;11.63;6.80;;;;;;;9.19;45.70;102183.03;5089075;28;20485;-85
2022/03/08 08:28:59;;;;;;;11.00;6.53;;;;;;;10.59;41.97;102194.38;5088801;28;20024;-85
2022/03/08 08:31:26;;;;;;;12.95;6.80;;;;;;;11.69;39.87;102192.16;5103782;28;20047;-85
2022/03/08 08:33:52;;;;;;;10.40;6.47;;;;;;;12.37;36.05;102193.38;5082772;28;20522;-85
2022/03/08 08:36:17;;;;;;;11.73;6.90;;;;;;;12.47;35.48;102189.81;5086430;28;20060;-85
2022/03/08 08:38:43;;;;;;;12.93;6.57;;;;;;;12.19;35.58;102185.75;5094620;28;20488;-85
2022/03/08 08:41:09;;;;;;;13.05;6.75;;;;;;;11.88;37.51;102198.97;5092858;28;20038;-85
2022/03/08 08:43:34;;;;;;;9.85;6.47;;;;;;;11.55;36.71;102193.97;5071550;28;20393;-85
2022/03/08 08:46:00;;;;;;;13.50;7.18;;;;;;;11.13;36.86;102199.38;5090866;28;20512;-85
2022/03/08 08:48:26;;;;;;;10.95;6.75;;;;;;;10.38;37.66;102203.91;5089466;28;20024;-85
2022/03/08 08:50:52;;;;;;;11.10;6.10;;;;;;;9.65;39.59;102196.06;5074185;28;20016;-85
2022/03/08 08:53:18;;;;;;;10.45;6.57;;;;;;;9.20;41.62;102195.09;5086050;28;20029;-85
2022/03/08 08:55:43;;;;;;;11.70;6.55;;;;;;;8.85;40.87;102197.53;5091821;28;20094;-85
2022/03/08 08:58:09;;;;;;;13.25;6.75;;;;;;;8.71;41.77;102200.03;5093198;28;20055;-85
2022/03/08 09:00:34;;;;;;;23.75;7.10;;;;;;;8.37;40.78;102181.72;5100260;28;20035;-85
2022/03/08 09:03:01;;;;;;;13.73;6.13;;;;;;;7.93;41.81;102188.22;5109905;28;20110;-85
2022/03/08 09:05:27;;;;;;;10.52;6.13;;;;;;;7.52;42.57;102187.84;5104480;28;20093;-85
2022/03/08 09:07:52;;;;;;;12.65;6.65;;;;;;;7.16;42.90;102177.13;5109677;28;20027;-85
2022/03/08 09:10:19;;;;;;;11.75;6.65;;;;;;;6.83;46.36;102181.84;5087219;28;20027;-85
2022/03/08 09:12:49;;;;;;;12.75;6.47;;;;;;;6.76;44.92;102180.91;5107011;28;20023;-86
2022/03/08 09:15:15;;;;;;;11.00;7.03;;;;;;;6.72;45.68;102181.72;5094973;28;20028;-86
2022/03/08 09:17:40;;;;;;;16.48;6.93;;;;;;;6.75;45.09;102179.19;5070467;28;20394;-86
2022/03/08 09:20:07;;;;;;;15.35;6.93;;;;;;;6.84;46.15;102170.69;5091925;28;20062;-85
2022/03/08 09:22:32;;;;;;;12.93;6.15;;;;;;;6.75;45.73;102180.03;5079812;28;20036;-86
2022/03/08 09:24:58;;;;;;;15.40;6.90;;;;;;;6.66;45.92;102184.22;5093699;28;20024;-86
2022/03/08 09:27:23;;;;;;;17.42;6.60;;;;;;;6.58;44.77;102171.22;5083384;28;20400;-85
2022/03/08 09:29:48;;;;;;;9.70;6.23;;;;;;;6.54;45.42;102174.63;5092975;28;20073;-85
2022/03/08 09:32:14;;;;;;;10.15;6.50;;;;;;;6.45;44.38;102174.47;5090951;28;20290;-85
2022/03/08 09:34:39;;;;;;;21.13;8.02;;;;;;;6.34;44.61;102176.91;5094062;28;20072;-85
2022/03/08 09:37:06;;;;;;;12.07;6.57;;;;;;;6.24;44.61;102162.16;5091620;28;20024;-85
2022/03/08 09:39:32;;;;;;;14.27;6.72;;;;;;;6.23;45.78;102162.97;5074414;28;20476;-85
2022/03/08 09:41:58;;;;;;;26.85;6.95;;;;;;;6.22;44.90;102166.41;5095218;28;20520;-85
2022/03/08 09:44:24;;;;;;;14.65;6.63;;;;;;;6.12;44.04;102158.53;5097274;28;20021;-85
2022/03/08 09:46:49;;;;;;;14.00;6.57;;;;;;;6.08;44.47;102151.56;5088389;28;20039;-85
2022/03/08 09:49:14;;;;;;;9.90;6.15;;;;;;;6.17;45.92;102152.59;5092929;28;20387;-85
2022/03/08 09:51:40;;;;;;;11.75;6.32;;;;;;;6.29;45.94;102150.19;5091935;28;20028;-85
2022/03/08 09:54:05;;;;;;;10.90;6.35;;;;;;;6.41;45.68;102149.53;5090854;28;20024;-86
2022/03/08 09:56:31;;;;;;;10.32;5.88;;;;;;;6.49;45.09;102147.91;5103279;28;20385;-85
2022/03/08 09:58:59;;;;;;;12.05;6.47;;;;;;;6.51;44.30;102153.94;5088779;28;20491;-85
2022/03/08 10:01:24;;;;;;;12.05;6.50;;;;;;;6.57;45.33;102146.31;5098287;28;20047;-85
2022/03/08 10:03:50;;;;;;;10.93;6.55;;;;;;;6.62;44.28;102141.19;5106008;28;20015;-85
2022/03/08 10:06:15;;;;;;;10.23;6.80;;;;;;;6.69;45.29;102132.72;5092142;28;20082;-85
2022/03/08 10:08:41;;;;;;;11.43;6.13;;;;;;;6.79;45.01;102133.72;5086375;28;20063;-85
2022/03/08 10:11:12;;;;;;;10.55;6.38;;;;;;;6.86;43.67;102120.91;5092117;28;20032;-84
2022/03/08 10:13:49;;;;;;;12.60;6.40;;;;;;;6.83;44.73;102122.56;5085728;28;20016;-84
2022/03/08 10:16:15;;;;;;;13.48;6.85;;;;;;;6.86;44.55;102120.91;5104479;28;20043;-84
2022/03/08 10:18:45;;;;;;;13.80;6.80;;;;;;;6.82;44.27;102119.16;5089544;28;20027;-85
2022/03/08 10:21:35;;;;;;;11.77;6.70;;;;;;;6.81;43.27;102127.75;5097434;28;20023;-85
2022/03/08 10:24:15;;;;;;;10.85;7.03;;;;;;;6.74;43.12;102108.75;5093063;28;20028;-85
2022/03/08 10:26:55;;;;;;;11.60;6.97;;;;;;;6.83;44.72;102120.88;5112151;28;20457;-85
2022/03/08 10:29:24;;;;;;;11.77;6.95;;;;;;;6.95;44.57;102121.03;5082921;28;20246;-84
2022/03/08 10:32:03;;;;;;;10.13;6.72;;;;;;;7.07;45.22;102118.59;5104960;28;20031;-85
2022/03/08 10:34:29;;;;;;;11.75;7.13;;;;;;;7.22;44.67;102114.44;5089792;28;20071;-85
2022/03/08 10:37:07;;;;;;;15.63;6.80;;;;;;;7.25;42.53;102109.31;5086909;28;20103;-85
2022/03/08 10:39:33;;;;;;;11.93;6.70;;;;;;;7.29;43.87;102111.09;5098796;28;20106;-85
2022/03/08 10:41:59;;;;;;;11.23;6.55;;;;;;;7.34;43.75;102107.69;5112000;28;20102;-85
2022/03/08 10:44:40;;;;;;;10.65;6.20;;;;;;;7.40;43.68;102099.16;5094476;28;20031;-85
2022/03/08 10:47:08;;;;;;;10.75;6.47;;;;;;;7.44;43.03;102106.06;5086962;28;20982;-85
2022/03/08 10:49:57;;;;;;;10.30;6.25;;;;;;;7.51;43.11;102100.97;5101124;28;20404;-84
2022/03/08 10:52:31;;;;;;;20.35;6.80;;;;;;;7.60;44.05;102096.75;5089487;28;20132;-85
2022/03/08 10:55:20;;;;;;;10.20;6.32;;;;;;;7.68;43.25;102095.97;5104981;28;20156;-85
2022/03/08 10:57:56;;;;;;;15.27;6.35;;;;;;;7.74;42.86;102085.69;5105767;28;20030;-85
2022/03/08 11:00:23;;;;;;;24.42;6.45;;;;;;;7.78;40.25;102078.84;5101631;28;20052;-85
2022/03/08 11:03:06;;;;;;;13.50;5.30;;;;;;;7.74;41.60;102093.44;5091779;28;20023;-85
2022/03/08 11:05:34;;;;;;;9.90;5.35;;;;;;;7.76;40.49;102077.97;5094498;28;20057;-84
2022/03/08 11:08:00;;;;;;;13.38;5.63;;;;;;;7.75;40.03;102082.25;5090125;28;20119;-85
2022/03/08 11:10:27;;;;;;;9.50;5.25;;;;;;;7.73;38.82;102068.47;5092672;28;20106;-84
2022/03/08 11:12:54;;;;;;;12.50;5.75;;;;;;;7.79;38.67;102084.00;5101740;28;20070;-84
2022/03/08 11:15:21;;;;;;;11.90;5.30;;;;;;;7.83;40.25;102072.00;5106684;28;20505;-84